createdAt,value
2019-02-19T00:00:42.306Z,18.40
2019-02-19T00:03:11.948Z,17.80
2019-02-19T00:05:41.758Z,17.30
2019-02-19T00:08:11.460Z,17.73
2019-02-19T00:10:41.456Z,17.60
2019-02-19T00:13:11.463Z,17.73
2019-02-19T00:15:41.219Z,19.20
2019-02-19T00:18:11.292Z,16.37
2019-02-19T00:20:41.314Z,17.97
2019-02-19T00:23:11.046Z,18.70
2019-02-19T00:25:40.734Z,15.60
2019-02-19T00:28:10.538Z,15.50
2019-02-19T00:30:40.294Z,19.07
2019-02-19T00:33:10.003Z,17.10
2019-02-19T00:35:39.657Z,17.17
2019-02-19T00:38:09.441Z,16.00
2019-02-19T00:40:39.150Z,18.70
2019-02-19T00:43:08.875Z,14.97
2019-02-19T00:45:38.658Z,14.93
2019-02-19T00:48:08.370Z,17.90
2019-02-19T00:50:38.091Z,14.60
2019-02-19T00:53:07.865Z,16.40
2019-02-19T00:55:37.487Z,18.03
2019-02-19T00:58:07.209Z,16.70
2019-02-19T01:00:36.928Z,17.23
2019-02-19T01:03:06.711Z,16.83
2019-02-19T01:05:36.484Z,15.40
2019-02-19T01:08:06.306Z,14.70
2019-02-19T01:10:36.101Z,14.50
2019-02-19T01:13:05.804Z,16.93
2019-02-19T01:15:35.519Z,18.60
2019-02-19T01:18:05.277Z,16.10
2019-02-19T01:20:34.982Z,17.00
2019-02-19T01:23:04.767Z,16.77
2019-02-19T01:25:34.398Z,15.03
2019-02-19T01:28:04.093Z,15.43
2019-02-19T01:30:33.841Z,17.10
2019-02-19T01:33:03.574Z,13.30
2019-02-19T01:35:33.287Z,18.07
2019-02-19T01:38:02.937Z,17.00
2019-02-19T01:40:32.620Z,17.43
2019-02-19T01:43:02.393Z,15.90
2019-02-19T01:45:34.066Z,13.93
2019-02-19T01:48:03.453Z,16.97
2019-02-19T01:50:33.476Z,19.50
2019-02-19T01:53:03.245Z,16.10
2019-02-19T01:55:33.025Z,15.40
2019-02-19T01:58:02.700Z,17.33
2019-02-19T02:00:32.775Z,19.00
2019-02-19T02:03:02.786Z,13.63
2019-02-19T02:05:32.456Z,16.10
2019-02-19T02:08:02.099Z,17.17
2019-02-19T02:10:31.806Z,14.63
2019-02-19T02:13:01.486Z,15.60
2019-02-19T02:15:31.265Z,15.47
2019-02-19T02:18:00.891Z,14.13
2019-02-19T02:20:31.782Z,16.40
2019-02-19T02:23:01.485Z,16.37
2019-02-19T02:25:31.109Z,16.90
2019-02-19T02:28:00.804Z,17.27
2019-02-19T02:30:30.471Z,14.87
2019-02-19T02:33:00.179Z,15.03
2019-02-19T02:35:29.885Z,17.50
2019-02-19T02:37:59.849Z,15.20
2019-02-19T02:40:29.563Z,13.90
2019-02-19T02:42:59.576Z,15.50
2019-02-19T02:45:29.594Z,15.73
2019-02-19T02:47:59.297Z,14.70
2019-02-19T02:50:29.319Z,16.53
2019-02-19T02:52:59.021Z,15.03
2019-02-19T02:55:29.051Z,13.43
2019-02-19T02:57:58.705Z,16.77
2019-02-19T03:00:28.381Z,15.17
2019-02-19T03:02:58.025Z,17.03
2019-02-19T03:05:27.990Z,15.37
2019-02-19T03:07:59.350Z,13.67
2019-02-19T03:10:28.946Z,15.13
2019-02-19T03:12:59.052Z,12.83
2019-02-19T03:15:28.769Z,14.30
2019-02-19T03:17:58.419Z,14.40
2019-02-19T03:20:28.079Z,16.97
2019-02-19T03:22:57.760Z,16.67
2019-02-19T03:25:27.582Z,17.80
2019-02-19T03:27:57.190Z,15.07
2019-02-19T03:30:27.238Z,16.53
2019-02-19T03:32:56.996Z,15.37
2019-02-19T03:35:26.667Z,14.23
2019-02-19T03:37:56.340Z,14.60
2019-02-19T03:40:26.001Z,16.00
2019-02-19T03:42:55.703Z,15.17
2019-02-19T03:45:25.693Z,17.40
2019-02-19T03:47:55.382Z,14.63
2019-02-19T03:50:25.431Z,20.93
2019-02-19T03:52:55.210Z,16.20
2019-02-19T03:55:24.956Z,16.27
2019-02-19T03:57:54.762Z,16.17
2019-02-19T04:00:24.871Z,14.80
2019-02-19T04:02:54.675Z,14.43
2019-02-19T04:05:24.359Z,13.73
2019-02-19T04:07:54.096Z,18.53
2019-02-19T04:10:24.224Z,15.80
2019-02-19T04:12:53.972Z,15.53
2019-02-19T04:15:23.678Z,16.77
2019-02-19T04:17:53.494Z,16.80
2019-02-19T04:20:23.168Z,18.30
2019-02-19T04:22:52.844Z,17.07
2019-02-19T04:25:42.156Z,15.70
2019-02-19T04:28:11.827Z,15.43
2019-02-19T04:30:41.876Z,15.97
2019-02-19T04:33:11.494Z,15.90
2019-02-19T04:35:41.230Z,13.90
2019-02-19T04:38:10.961Z,16.20
2019-02-19T04:40:40.595Z,16.83
2019-02-19T04:43:10.313Z,17.57
2019-02-19T04:45:40.022Z,14.90
2019-02-19T04:48:09.688Z,14.67
2019-02-19T04:50:39.656Z,16.30
2019-02-19T04:53:09.340Z,14.80
2019-02-19T04:55:39.019Z,15.20
2019-02-19T04:58:08.675Z,16.50
2019-02-19T05:00:38.457Z,13.20
2019-02-19T05:03:08.149Z,16.67
2019-02-19T05:05:38.113Z,14.43
2019-02-19T05:08:07.800Z,15.60
2019-02-19T05:10:37.443Z,15.07
2019-02-19T05:13:07.172Z,14.30
2019-02-19T05:15:36.846Z,14.67
2019-02-19T05:18:06.563Z,14.87
2019-02-19T05:20:36.226Z,12.47
2019-02-19T05:23:07.509Z,15.40
2019-02-19T05:25:37.424Z,14.33
2019-02-19T05:28:07.133Z,14.33
2019-02-19T05:30:36.776Z,14.00
2019-02-19T05:33:06.584Z,13.80
2019-02-19T05:35:36.336Z,13.40
2019-02-19T05:38:06.019Z,15.40
2019-02-19T05:40:35.852Z,13.70
2019-02-19T05:43:05.603Z,13.27
2019-02-19T05:45:35.238Z,14.27
2019-02-19T05:48:05.391Z,14.47
2019-02-19T05:50:35.227Z,14.20
2019-02-19T05:53:04.953Z,12.13
2019-02-19T05:55:34.824Z,16.80
2019-02-19T05:58:04.526Z,13.33
2019-02-19T06:00:34.362Z,18.47
2019-02-19T06:03:04.256Z,15.77
2019-02-19T06:05:33.895Z,13.67
2019-02-19T06:08:03.575Z,12.53
2019-02-19T06:10:33.259Z,13.47
2019-02-19T06:13:02.933Z,12.63
2019-02-19T06:15:32.632Z,14.73
2019-02-19T06:18:02.273Z,12.80
2019-02-19T06:20:31.908Z,13.73
2019-02-19T06:23:01.782Z,16.07
2019-02-19T06:25:31.394Z,16.50
2019-02-19T06:28:01.062Z,13.83
2019-02-19T06:30:31.009Z,15.03
2019-02-19T06:33:00.669Z,13.53
2019-02-19T06:35:30.275Z,13.33
2019-02-19T06:38:00.006Z,13.07
2019-02-19T06:40:30.391Z,12.93
2019-02-19T06:43:00.202Z,16.30
2019-02-19T06:45:29.897Z,14.07
2019-02-19T06:47:59.611Z,13.37
2019-02-19T06:50:29.343Z,6.77
2019-02-19T06:52:58.999Z,9.73
2019-02-19T06:55:28.626Z,8.73
2019-02-19T06:57:58.359Z,9.03
2019-02-19T07:00:38.843Z,10.50
2019-02-19T07:03:13.112Z,11.60
2019-02-19T07:05:42.891Z,8.83
2019-02-19T07:08:12.498Z,8.87
2019-02-19T07:10:42.284Z,7.87
2019-02-19T07:13:11.969Z,10.03
2019-02-19T07:15:41.707Z,10.30
2019-02-19T07:18:11.352Z,10.70
2019-02-19T07:20:41.119Z,12.73
2019-02-19T07:23:11.088Z,11.37
2019-02-19T07:25:40.871Z,9.07
2019-02-19T07:28:10.570Z,9.57
2019-02-19T07:30:40.734Z,10.73
2019-02-19T07:33:10.343Z,11.80
2019-02-19T07:35:40.030Z,9.07
2019-02-19T07:38:09.760Z,13.60
2019-02-19T07:40:39.535Z,14.50
2019-02-19T07:43:09.148Z,9.40
2019-02-19T07:45:38.924Z,12.20
2019-02-19T07:48:08.726Z,10.70
2019-02-19T07:50:38.351Z,14.50
2019-02-19T07:53:08.055Z,12.93
2019-02-19T07:55:37.687Z,10.67
2019-02-19T07:58:07.331Z,12.10
2019-02-19T08:00:37.108Z,12.53
2019-02-19T08:03:06.741Z,13.13
2019-02-19T08:05:37.787Z,12.37
2019-02-19T08:08:07.567Z,12.10
2019-02-19T08:10:37.309Z,10.67
2019-02-19T08:13:07.335Z,10.47
2019-02-19T08:15:36.971Z,12.03
2019-02-19T08:18:06.719Z,12.70
2019-02-19T08:20:36.767Z,11.00
2019-02-19T08:23:06.557Z,15.67
2019-02-19T08:25:36.204Z,13.17
2019-02-19T08:28:06.055Z,10.23
2019-02-19T08:30:36.116Z,11.53
2019-02-19T08:33:05.874Z,11.63
2019-02-19T08:35:35.592Z,11.73
2019-02-19T08:38:05.755Z,11.03
2019-02-19T08:40:35.469Z,11.17
2019-02-19T08:43:05.208Z,13.17
2019-02-19T08:45:34.933Z,11.50
2019-02-19T08:48:04.706Z,10.67
2019-02-19T08:50:34.737Z,14.77
2019-02-19T08:53:04.456Z,10.10
2019-02-19T08:55:34.897Z,10.07
2019-02-19T08:58:04.898Z,10.13
2019-02-19T09:00:34.639Z,11.20
2019-02-19T09:03:04.534Z,11.50
2019-02-19T09:05:34.245Z,10.00
2019-02-19T09:08:03.926Z,12.13
2019-02-19T09:10:33.659Z,11.33
2019-02-19T09:13:03.354Z,11.20
2019-02-19T09:15:33.055Z,11.50
2019-02-19T09:18:02.747Z,11.27
2019-02-19T09:20:32.522Z,12.70
2019-02-19T09:23:02.125Z,12.00
2019-02-19T09:25:31.867Z,9.93
2019-02-19T09:28:01.630Z,11.93
2019-02-19T09:30:31.435Z,11.43
2019-02-19T09:33:01.173Z,12.33
2019-02-19T09:35:30.862Z,11.27
2019-02-19T09:38:00.949Z,11.73
2019-02-19T09:40:30.684Z,11.07
2019-02-19T09:43:00.314Z,12.60
2019-02-19T09:45:30.028Z,9.60
2019-02-19T09:48:01.480Z,10.63
2019-02-19T09:50:30.991Z,13.33
2019-02-19T09:53:00.712Z,13.33
2019-02-19T09:55:30.328Z,11.13
2019-02-19T09:58:00.065Z,12.40
2019-02-19T10:00:29.737Z,12.80
2019-02-19T10:02:59.549Z,12.53
2019-02-19T10:05:29.340Z,11.17
2019-02-19T10:07:59.060Z,12.37
2019-02-19T10:10:28.756Z,12.80
2019-02-19T10:12:59.041Z,12.90
2019-02-19T10:15:28.768Z,12.43
2019-02-19T10:17:58.391Z,13.60
2019-02-19T10:20:28.042Z,11.47
2019-02-19T10:22:57.675Z,16.23
2019-02-19T10:25:27.383Z,10.67
2019-02-19T10:27:57.034Z,10.07
2019-02-19T10:30:26.698Z,11.10
2019-02-19T10:32:56.331Z,11.90
2019-02-19T10:35:26.147Z,14.43
2019-02-19T10:37:55.748Z,10.60
2019-02-19T10:40:25.482Z,11.83
2019-02-19T10:42:55.187Z,13.57
2019-02-19T10:45:27.949Z,11.57
2019-02-19T10:47:57.935Z,14.20
2019-02-19T10:50:27.577Z,12.47
2019-02-19T10:52:57.295Z,11.30
2019-02-19T10:55:26.983Z,13.27
2019-02-19T10:57:56.987Z,14.73
2019-02-19T11:00:26.781Z,13.73
2019-02-19T11:02:56.454Z,14.90
2019-02-19T11:05:26.139Z,17.83
2019-02-19T11:07:55.836Z,13.97
2019-02-19T11:10:25.939Z,14.40
2019-02-19T11:12:55.557Z,13.60
2019-02-19T11:15:25.239Z,13.47
2019-02-19T11:17:54.925Z,13.50
2019-02-19T11:20:24.976Z,12.70
2019-02-19T11:22:54.694Z,15.23
2019-02-19T11:25:24.410Z,10.87
2019-02-19T11:27:54.291Z,16.03
2019-02-19T11:30:24.207Z,10.37
2019-02-19T11:32:53.916Z,13.73
2019-02-19T11:35:23.654Z,11.33
2019-02-19T11:37:53.353Z,12.87
2019-02-19T11:40:22.960Z,13.10
2019-02-19T11:42:52.634Z,12.27
2019-02-19T11:45:22.411Z,14.43
2019-02-19T11:47:52.019Z,12.83
2019-02-19T11:50:22.101Z,13.03
2019-02-19T11:52:52.836Z,11.50
2019-02-19T11:55:22.866Z,13.17
2019-02-19T11:57:52.875Z,13.60
2019-02-19T12:00:29.847Z,12.90
2019-02-19T12:02:59.595Z,14.10
2019-02-19T12:05:29.379Z,12.63
2019-02-19T12:07:59.171Z,9.70
2019-02-19T12:10:28.863Z,12.87
2019-02-19T12:12:58.551Z,18.10
2019-02-19T12:15:34.886Z,11.80
2019-02-19T12:17:59.670Z,14.00
2019-02-19T12:20:29.459Z,12.80
2019-02-19T12:22:59.490Z,11.63
2019-02-19T12:25:29.262Z,12.00
2019-02-19T12:27:58.978Z,11.80
2019-02-19T12:30:28.697Z,15.47
2019-02-19T12:32:58.402Z,12.40
2019-02-19T12:35:28.450Z,11.03
2019-02-19T12:37:58.076Z,14.07
2019-02-19T12:40:27.743Z,10.00
2019-02-19T12:42:57.444Z,12.20
2019-02-19T12:45:27.123Z,11.43
2019-02-19T12:47:56.847Z,9.80
2019-02-19T12:50:26.815Z,12.20
2019-02-19T12:52:56.853Z,12.53
2019-02-19T12:55:27.054Z,10.27
2019-02-19T12:57:56.669Z,8.27
2019-02-19T13:00:26.546Z,10.97
2019-02-19T13:02:56.359Z,11.47
2019-02-19T13:05:26.117Z,9.13
2019-02-19T13:07:55.878Z,9.67
2019-02-19T13:10:25.728Z,10.00
2019-02-19T13:12:55.514Z,10.00
2019-02-19T13:15:25.301Z,9.30
2019-02-19T13:17:55.254Z,7.20
2019-02-19T13:20:24.987Z,9.00
2019-02-19T13:22:54.647Z,11.00
2019-02-19T13:25:24.451Z,9.17
2019-02-19T13:27:54.099Z,10.27
2019-02-19T13:30:24.118Z,10.40
2019-02-19T13:32:53.926Z,9.50
2019-02-19T13:35:23.639Z,10.30
2019-02-19T13:37:53.338Z,10.97
2019-02-19T13:40:23.042Z,11.53
2019-02-19T13:42:52.938Z,9.43
2019-02-19T13:45:23.199Z,13.73
2019-02-19T13:47:52.909Z,15.67
2019-02-19T13:50:28.396Z,12.10
2019-02-19T13:52:59.704Z,12.98
2019-02-19T13:55:31.438Z,11.50
2019-02-19T13:58:01.576Z,9.10
2019-02-19T14:00:33.046Z,10.30
2019-02-19T14:03:02.858Z,8.17
2019-02-19T14:05:32.460Z,7.50
2019-02-19T14:08:02.163Z,8.63
2019-02-19T14:10:31.907Z,9.10
2019-02-19T14:13:01.686Z,6.77
2019-02-19T14:15:36.182Z,10.73
2019-02-19T14:18:07.683Z,6.97
2019-02-19T14:20:44.700Z,6.67
2019-02-19T14:23:18.939Z,6.50
2019-02-19T14:25:52.733Z,5.43
2019-02-19T14:28:26.691Z,7.30
2019-02-19T14:31:14.484Z,9.33
2019-02-19T14:34:02.256Z,5.30
2019-02-19T14:36:33.565Z,5.53
2019-02-19T14:39:11.169Z,6.40
2019-02-19T14:41:51.814Z,6.53
2019-02-19T14:44:41.671Z,5.57
2019-02-19T14:47:16.269Z,4.20
2019-02-19T14:50:03.907Z,7.63
2019-02-19T14:52:51.240Z,5.10
2019-02-19T14:55:22.841Z,7.90
2019-02-19T14:58:03.243Z,6.43
2019-02-19T15:00:51.247Z,4.97
2019-02-19T15:03:38.365Z,3.83
2019-02-19T15:06:18.757Z,6.93
2019-02-19T15:09:05.423Z,4.70
2019-02-19T15:11:48.823Z,7.43
2019-02-19T15:14:26.453Z,8.57
2019-02-19T15:17:14.111Z,5.13
2019-02-19T15:19:54.480Z,4.73
2019-02-19T15:22:25.949Z,5.63
2019-02-19T15:24:59.923Z,5.60
2019-02-19T15:27:31.281Z,4.30
2019-02-19T15:30:02.560Z,7.50
2019-02-19T15:32:51.849Z,7.07
2019-02-19T15:35:41.303Z,5.20
2019-02-19T15:38:12.727Z,5.93
2019-02-19T15:40:59.707Z,4.80
2019-02-19T15:43:31.095Z,5.13
2019-02-19T15:46:18.906Z,4.77
2019-02-19T15:49:06.269Z,5.00
2019-02-19T15:51:40.640Z,5.30
2019-02-19T15:54:17.912Z,5.67
2019-02-19T15:56:54.967Z,6.10
2019-02-19T15:59:29.278Z,4.50
2019-02-19T16:02:17.564Z,5.47
2019-02-19T16:05:05.230Z,5.33
2019-02-19T16:07:48.349Z,4.17
2019-02-19T16:10:34.348Z,4.07
2019-02-19T16:13:18.353Z,5.73
2019-02-19T16:16:08.341Z,6.23
2019-02-19T16:18:39.649Z,7.90
2019-02-19T16:21:25.990Z,6.83
2019-02-19T16:23:57.270Z,4.23
2019-02-19T16:26:43.927Z,4.87
2019-02-19T16:29:18.197Z,6.40
2019-02-19T16:31:49.557Z,6.10
2019-02-19T16:34:20.834Z,5.80
2019-02-19T16:36:55.379Z,6.83
2019-02-19T16:39:35.969Z,7.57
2019-02-19T16:42:19.217Z,5.87
2019-02-19T16:44:50.453Z,6.00
2019-02-19T16:47:39.638Z,6.53
2019-02-19T16:50:23.474Z,5.03
2019-02-19T16:52:57.574Z,6.20
2019-02-19T16:55:34.424Z,6.93
2019-02-19T16:58:05.856Z,6.50
2019-02-19T17:00:40.223Z,7.07
2019-02-19T17:03:11.529Z,5.47
2019-02-19T17:05:42.864Z,5.87
2019-02-19T17:08:22.985Z,5.10
2019-02-19T17:10:54.229Z,5.37
2019-02-19T17:13:40.894Z,6.33
2019-02-19T17:16:26.985Z,9.60
2019-02-19T17:22:10.825Z,6.50
2019-02-19T17:24:54.871Z,4.43
2019-02-19T17:27:42.678Z,5.30
2019-02-19T17:30:14.108Z,4.60
2019-02-19T17:33:02.306Z,8.60
2019-02-19T17:35:52.935Z,4.20
2019-02-19T17:38:24.287Z,6.93
2019-02-19T17:40:55.627Z,5.40
2019-02-19T17:43:26.962Z,5.43
2019-02-19T17:46:13.537Z,3.30
2019-02-19T17:48:59.982Z,4.47
2019-02-19T17:51:34.135Z,5.93
2019-02-19T17:54:11.561Z,6.30
2019-02-19T17:56:45.887Z,4.80
2019-02-19T17:59:20.008Z,4.43
2019-02-19T18:02:00.080Z,5.80
2019-02-19T18:04:33.898Z,6.30
2019-02-19T18:07:21.578Z,7.10
2019-02-19T18:09:58.686Z,4.63
2019-02-19T18:12:30.012Z,5.07
2019-02-19T18:15:07.366Z,4.47
2019-02-19T18:17:41.659Z,4.10
2019-02-19T18:20:11.373Z,4.33
2019-02-19T18:22:41.108Z,4.63
2019-02-19T18:25:10.776Z,3.90
2019-02-19T18:27:40.535Z,4.17
2019-02-19T18:30:11.742Z,3.60
2019-02-19T18:32:41.923Z,5.23
2019-02-19T18:35:11.640Z,4.20
2019-02-19T18:37:41.349Z,4.97
2019-02-19T18:40:11.090Z,4.60
2019-02-19T18:42:40.908Z,4.50
2019-02-19T18:45:10.661Z,3.83
2019-02-19T18:47:40.350Z,4.97
2019-02-19T18:50:10.303Z,7.53
2019-02-19T18:52:40.011Z,4.00
2019-02-19T18:55:09.799Z,5.60
2019-02-19T18:57:39.431Z,3.07
2019-02-19T19:00:12.089Z,3.90
2019-02-19T19:02:41.692Z,4.23
2019-02-19T19:05:11.467Z,2.33
2019-02-19T19:07:41.191Z,3.43
2019-02-19T19:10:11.846Z,3.90
2019-02-19T19:12:41.546Z,3.73
2019-02-19T19:15:11.415Z,5.50
2019-02-19T19:17:41.136Z,3.13
2019-02-19T19:20:12.388Z,8.50
2019-02-19T19:22:42.152Z,3.53
2019-02-19T19:25:12.288Z,6.17
2019-02-19T19:27:41.949Z,4.33
2019-02-19T19:30:15.769Z,2.37
2019-02-19T19:32:45.794Z,2.77
2019-02-19T19:35:15.904Z,3.23
2019-02-19T19:37:45.722Z,4.67
2019-02-19T19:40:15.526Z,3.00
2019-02-19T19:42:45.225Z,2.93
2019-02-19T19:45:14.907Z,3.07
2019-02-19T19:47:44.690Z,8.90
2019-02-19T19:50:14.378Z,4.50
2019-02-19T19:52:43.997Z,4.00
2019-02-19T19:55:13.762Z,3.63
2019-02-19T19:57:43.468Z,5.70
2019-02-19T20:00:13.966Z,3.17
2019-02-19T20:02:43.601Z,4.63
2019-02-19T20:05:13.343Z,3.33
2019-02-19T20:07:43.083Z,2.10
2019-02-19T20:10:14.423Z,3.17
2019-02-19T20:12:44.204Z,2.30
2019-02-19T20:15:13.998Z,2.67
2019-02-19T20:17:43.625Z,2.80
2019-02-19T20:20:13.601Z,3.00
2019-02-19T20:22:43.271Z,3.17
2019-02-19T20:25:13.849Z,2.03
2019-02-19T20:27:43.567Z,3.27
2019-02-19T20:30:15.116Z,2.87
2019-02-19T20:32:44.886Z,2.23
2019-02-19T20:35:14.599Z,2.07
2019-02-19T20:37:44.254Z,1.67
2019-02-19T20:40:14.123Z,2.70
2019-02-19T20:42:43.799Z,1.93
2019-02-19T20:45:13.817Z,4.00
2019-02-19T20:47:43.647Z,3.30
2019-02-19T20:50:14.222Z,3.33
2019-02-19T20:52:44.050Z,2.53
2019-02-19T20:55:13.815Z,2.23
2019-02-19T20:57:43.515Z,2.67
2019-02-19T21:00:17.633Z,3.17
2019-02-19T21:02:47.414Z,1.93
2019-02-19T21:05:17.099Z,1.80
2019-02-19T21:07:46.817Z,1.53
2019-02-19T21:10:18.957Z,2.67
2019-02-19T21:12:48.766Z,1.97
2019-02-19T21:15:18.516Z,2.10
2019-02-19T21:17:48.280Z,2.07
2019-02-19T21:20:18.070Z,2.50
2019-02-19T21:22:47.846Z,1.80
2019-02-19T21:25:17.699Z,2.77
2019-02-19T21:27:47.387Z,2.20
2019-02-19T21:30:17.428Z,2.93
2019-02-19T21:32:47.204Z,2.23
2019-02-19T21:35:16.881Z,3.53
2019-02-19T21:37:46.501Z,3.10
2019-02-19T21:40:16.729Z,2.47
2019-02-19T21:42:46.783Z,2.87
2019-02-19T21:45:16.576Z,3.13
2019-02-19T21:47:46.590Z,2.33
2019-02-19T21:50:39.049Z,2.97
2019-02-19T21:53:08.954Z,2.20
2019-02-19T21:55:38.774Z,3.03
2019-02-19T21:58:08.492Z,3.23
2019-02-19T22:00:38.312Z,2.90
2019-02-19T22:03:08.091Z,2.10
2019-02-19T22:05:38.046Z,4.23
2019-02-19T22:08:07.823Z,2.20
2019-02-19T22:10:38.075Z,1.73
2019-02-19T22:13:08.124Z,2.53
2019-02-19T22:15:37.900Z,2.27
2019-02-19T22:18:28.555Z,3.03
2019-02-19T22:20:59.909Z,1.90
2019-02-19T22:23:29.636Z,2.27
2019-02-19T22:26:00.246Z,2.00
2019-02-19T22:28:29.950Z,2.57
2019-02-19T22:30:59.744Z,3.43
2019-02-19T22:33:29.531Z,2.70
2019-02-19T22:35:59.157Z,2.60
2019-02-19T22:38:28.782Z,2.43
2019-02-19T22:40:58.596Z,1.87
2019-02-19T22:43:28.339Z,1.83
2019-02-19T22:45:58.037Z,6.63
2019-02-19T22:48:27.840Z,2.03
2019-02-19T22:50:57.535Z,1.80
2019-02-19T22:53:40.658Z,2.07
2019-02-19T22:56:12.360Z,2.03
2019-02-19T22:58:41.999Z,3.60
2019-02-19T23:01:15.335Z,2.40
2019-02-19T23:03:45.152Z,2.17
2019-02-19T23:06:14.842Z,2.00
2019-02-19T23:08:44.542Z,3.17
2019-02-19T23:11:14.275Z,2.67
2019-02-19T23:13:43.881Z,1.70
2019-02-19T23:16:13.695Z,1.73
2019-02-19T23:18:43.455Z,2.07
2019-02-19T23:21:13.225Z,1.70
2019-02-19T23:23:43.038Z,2.03
2019-02-19T23:26:12.781Z,2.40
2019-02-19T23:28:42.469Z,2.30
2019-02-19T23:31:12.262Z,1.70
2019-02-19T23:33:41.864Z,2.67
2019-02-19T23:36:13.349Z,3.60
2019-02-19T23:39:02.882Z,2.70
2019-02-19T23:41:34.459Z,1.83
2019-02-19T23:44:04.256Z,2.30
2019-02-19T23:46:34.069Z,3.63
2019-02-19T23:49:03.814Z,2.50
2019-02-19T23:51:33.575Z,2.20
2019-02-19T23:54:03.290Z,2.40
2019-02-19T23:56:32.935Z,4.20
2019-02-19T23:59:02.624Z,3.63
